sensor_id;sensor_type;location;lat;lon;timestamp;temperature;humidity
82901;DHT22;72673;50.822;3.280;2024-01-15T00:01:42;3.40;94.70
82901;DHT22;72673;50.822;3.280;2024-01-15T00:04:09;3.40;94.70
82901;DHT22;72673;50.822;3.280;2024-01-15T00:06:35;3.40;94.90
82901;DHT22;72673;50.822;3.280;2024-01-15T00:09:00;3.30;95.00
82901;DHT22;72673;50.822;3.280;2024-01-15T00:11:26;3.30;95.10
82901;DHT22;72673;50.822;3.280;2024-01-15T00:13:52;3.30;95.10
82901;DHT22;72673;50.822;3.280;2024-01-15T00:16:17;3.30;95.10
82901;DHT22;72673;50.822;3.280;2024-01-15T00:18:43;3.20;95.40
82901;DHT22;72673;50.822;3.280;2024-01-15T00:21:09;3.20;95.40
82901;DHT22;72673;50.822;3.280;2024-01-15T00:23:35;3.30;95.20
82901;DHT22;72673;50.822;3.280;2024-01-15T00:26:00;3.40;94.90
82901;DHT22;72673;50.822;3.280;2024-01-15T00:28:26;3.30;94.90
82901;DHT22;72673;50.822;3.280;2024-01-15T00:30:51;3.20;95.10
82901;DHT22;72673;50.822;3.280;2024-01-15T00:33:17;3.20;95.40
82901;DHT22;72673;50.822;3.280;2024-01-15T00:35:43;3.20;95.40
82901;DHT22;72673;50.822;3.280;2024-01-15T00:38:08;3.30;95.20
82901;DHT22;72673;50.822;3.280;2024-01-15T00:40:34;3.40;94.80
82901;DHT22;72673;50.822;3.280;2024-01-15T00:42:59;3.40;94.80
82901;DHT22;72673;50.822;3.280;2024-01-15T00:45:25;3.40;94.80
82901;DHT22;72673;50.822;3.280;2024-01-15T00:47:50;3.40;94.90
82901;DHT22;72673;50.822;3.280;2024-01-15T00:50:16;3.40;94.90
82901;DHT22;72673;50.822;3.280;2024-01-15T00:52:42;3.40;94.80
82901;DHT22;72673;50.822;3.280;2024-01-15T00:55:08;3.40;94.60
82901;DHT22;72673;50.822;3.280;2024-01-15T00:57:33;3.40;94.70
82901;DHT22;72673;50.822;3.280;2024-01-15T00:59:59;3.40;94.40
82901;DHT22;72673;50.822;3.280;2024-01-15T01:02:26;3.30;94.50
82901;DHT22;72673;50.822;3.280;2024-01-15T01:04:52;3.30;94.70
82901;DHT22;72673;50.822;3.280;2024-01-15T01:07:17;3.20;94.70
82901;DHT22;72673;50.822;3.280;2024-01-15T01:09:43;3.30;94.30
82901;DHT22;72673;50.822;3.280;2024-01-15T01:12:09;3.40;94.20
82901;DHT22;72673;50.822;3.280;2024-01-15T01:14:35;3.40;94.40
82901;DHT22;72673;50.822;3.280;2024-01-15T01:17:00;3.40;93.80
82901;DHT22;72673;50.822;3.280;2024-01-15T01:19:26;3.40;93.70
82901;DHT22;72673;50.822;3.280;2024-01-15T01:21:52;3.40;93.80
82901;DHT22;72673;50.822;3.280;2024-01-15T01:24:17;3.40;93.80
82901;DHT22;72673;50.822;3.280;2024-01-15T01:26:43;3.50;93.40
82901;DHT22;72673;50.822;3.280;2024-01-15T01:29:11;3.50;93.40
82901;DHT22;72673;50.822;3.280;2024-01-15T01:31:42;3.40;93.50
82901;DHT22;72673;50.822;3.280;2024-01-15T01:34:08;3.40;93.60
82901;DHT22;72673;50.822;3.280;2024-01-15T01:36:34;3.40;93.50
82901;DHT22;72673;50.822;3.280;2024-01-15T01:38:59;3.50;93.30
82901;DHT22;72673;50.822;3.280;2024-01-15T01:41:25;3.50;93.30
82901;DHT22;72673;50.822;3.280;2024-01-15T01:43:50;3.50;93.10
82901;DHT22;72673;50.822;3.280;2024-01-15T01:46:16;3.60;92.70
82901;DHT22;72673;50.822;3.280;2024-01-15T01:48:42;3.60;92.50
82901;DHT22;72673;50.822;3.280;2024-01-15T01:51:08;3.50;92.60
82901;DHT22;72673;50.822;3.280;2024-01-15T01:53:34;3.50;92.70
82901;DHT22;72673;50.822;3.280;2024-01-15T01:56:02;3.50;92.90
82901;DHT22;72673;50.822;3.280;2024-01-15T01:58:28;3.60;92.60
82901;DHT22;72673;50.822;3.280;2024-01-15T02:00:55;3.60;92.40
82901;DHT22;72673;50.822;3.280;2024-01-15T02:03:21;3.60;92.60
82901;DHT22;72673;50.822;3.280;2024-01-15T02:05:48;3.60;92.60
82901;DHT22;72673;50.822;3.280;2024-01-15T02:08:14;3.50;92.70
82901;DHT22;72673;50.822;3.280;2024-01-15T02:10:40;3.50;92.80
82901;DHT22;72673;50.822;3.280;2024-01-15T02:13:06;3.50;92.70
82901;DHT22;72673;50.822;3.280;2024-01-15T02:15:31;3.60;92.60
82901;DHT22;72673;50.822;3.280;2024-01-15T02:18:03;3.50;92.60
82901;DHT22;72673;50.822;3.280;2024-01-15T02:20:29;3.50;92.70
82901;DHT22;72673;50.822;3.280;2024-01-15T02:23:11;3.50;92.60
82901;DHT22;72673;50.822;3.280;2024-01-15T02:25:42;3.40;92.50
82901;DHT22;72673;50.822;3.280;2024-01-15T02:28:10;3.50;92.60
82901;DHT22;72673;50.822;3.280;2024-01-15T02:30:38;3.50;92.70
82901;DHT22;72673;50.822;3.280;2024-01-15T02:33:07;3.50;92.50
82901;DHT22;72673;50.822;3.280;2024-01-15T02:35:33;3.50;92.60
82901;DHT22;72673;50.822;3.280;2024-01-15T02:37:59;3.60;92.30
82901;DHT22;72673;50.822;3.280;2024-01-15T02:40:24;3.60;92.40
82901;DHT22;72673;50.822;3.280;2024-01-15T02:42:50;3.50;92.40
82901;DHT22;72673;50.822;3.280;2024-01-15T02:45:17;3.50;92.50
82901;DHT22;72673;50.822;3.280;2024-01-15T02:47:42;3.60;92.20
82901;DHT22;72673;50.822;3.280;2024-01-15T02:50:08;3.50;92.40
82901;DHT22;72673;50.822;3.280;2024-01-15T02:52:34;3.60;92.50
82901;DHT22;72673;50.822;3.280;2024-01-15T02:54:59;3.60;92.50
82901;DHT22;72673;50.822;3.280;2024-01-15T02:57:25;3.70;92.40
82901;DHT22;72673;50.822;3.280;2024-01-15T02:59:51;3.80;92.00
82901;DHT22;72673;50.822;3.280;2024-01-15T03:02:16;3.80;92.00
82901;DHT22;72673;50.822;3.280;2024-01-15T03:04:45;3.70;92.00
82901;DHT22;72673;50.822;3.280;2024-01-15T03:07:11;3.50;92.40
82901;DHT22;72673;50.822;3.280;2024-01-15T03:09:37;3.40;92.60
82901;DHT22;72673;50.822;3.280;2024-01-15T03:12:02;3.40;92.70
82901;DHT22;72673;50.822;3.280;2024-01-15T03:14:28;3.50;92.50
82901;DHT22;72673;50.822;3.280;2024-01-15T03:16:54;3.50;92.40
82901;DHT22;72673;50.822;3.280;2024-01-15T03:19:19;3.50;92.20
82901;DHT22;72673;50.822;3.280;2024-01-15T03:21:45;3.40;92.10
82901;DHT22;72673;50.822;3.280;2024-01-15T03:24:11;3.50;92.30
82901;DHT22;72673;50.822;3.280;2024-01-15T03:26:37;3.50;92.20
82901;DHT22;72673;50.822;3.280;2024-01-15T03:29:02;3.50;92.30
82901;DHT22;72673;50.822;3.280;2024-01-15T03:31:28;3.50;92.20
82901;DHT22;72673;50.822;3.280;2024-01-15T03:33:53;3.70;92.10
82901;DHT22;72673;50.822;3.280;2024-01-15T03:36:19;3.60;92.30
82901;DHT22;72673;50.822;3.280;2024-01-15T03:38:45;3.80;92.30
82901;DHT22;72673;50.822;3.280;2024-01-15T03:41:10;3.70;92.00
82901;DHT22;72673;50.822;3.280;2024-01-15T03:43:36;3.50;92.50
82901;DHT22;72673;50.822;3.280;2024-01-15T03:46:02;3.40;92.80
82901;DHT22;72673;50.822;3.280;2024-01-15T03:48:28;3.40;92.90
82901;DHT22;72673;50.822;3.280;2024-01-15T03:50:53;3.30;93.00
82901;DHT22;72673;50.822;3.280;2024-01-15T03:53:19;3.30;93.20
82901;DHT22;72673;50.822;3.280;2024-01-15T03:55:45;3.30;93.30
82901;DHT22;72673;50.822;3.280;2024-01-15T03:58:10;3.20;93.20
82901;DHT22;72673;50.822;3.280;2024-01-15T04:00:36;3.20;93.40
82901;DHT22;72673;50.822;3.280;2024-01-15T04:03:02;3.30;93.30
82901;DHT22;72673;50.822;3.280;2024-01-15T04:05:27;3.30;93.20
82901;DHT22;72673;50.822;3.280;2024-01-15T04:07:53;3.30;92.80
82901;DHT22;72673;50.822;3.280;2024-01-15T04:10:19;3.40;92.70
82901;DHT22;72673;50.822;3.280;2024-01-15T04:12:44;3.40;92.60
82901;DHT22;72673;50.822;3.280;2024-01-15T04:15:12;3.40;92.50
82901;DHT22;72673;50.822;3.280;2024-01-15T04:17:38;3.40;92.60
82901;DHT22;72673;50.822;3.280;2024-01-15T04:20:04;3.50;92.20
82901;DHT22;72673;50.822;3.280;2024-01-15T04:22:30;3.50;91.90
82901;DHT22;72673;50.822;3.280;2024-01-15T04:24:55;3.40;91.90
82901;DHT22;72673;50.822;3.280;2024-01-15T04:27:21;3.40;91.90
82901;DHT22;72673;50.822;3.280;2024-01-15T04:29:47;3.40;92.00
82901;DHT22;72673;50.822;3.280;2024-01-15T04:32:12;3.40;92.10
82901;DHT22;72673;50.822;3.280;2024-01-15T04:34:38;3.30;91.90
82901;DHT22;72673;50.822;3.280;2024-01-15T04:37:04;3.20;92.10
82901;DHT22;72673;50.822;3.280;2024-01-15T04:39:29;3.20;92.10
82901;DHT22;72673;50.822;3.280;2024-01-15T04:41:55;3.20;92.10
82901;DHT22;72673;50.822;3.280;2024-01-15T04:44:20;3.30;91.90
82901;DHT22;72673;50.822;3.280;2024-01-15T04:46:46;3.20;91.90
82901;DHT22;72673;50.822;3.280;2024-01-15T04:49:12;3.20;91.80
82901;DHT22;72673;50.822;3.280;2024-01-15T04:51:37;3.20;91.60
82901;DHT22;72673;50.822;3.280;2024-01-15T04:54:03;3.20;91.40
82901;DHT22;72673;50.822;3.280;2024-01-15T04:56:29;3.10;91.80
82901;DHT22;72673;50.822;3.280;2024-01-15T04:58:55;3.20;91.80
82901;DHT22;72673;50.822;3.280;2024-01-15T05:01:20;3.20;92.00
82901;DHT22;72673;50.822;3.280;2024-01-15T05:03:46;3.10;92.10
82901;DHT22;72673;50.822;3.280;2024-01-15T05:06:12;3.20;92.10
82901;DHT22;72673;50.822;3.280;2024-01-15T05:08:37;3.20;92.10
82901;DHT22;72673;50.822;3.280;2024-01-15T05:11:03;3.20;92.20
82901;DHT22;72673;50.822;3.280;2024-01-15T05:13:29;3.20;92.10
82901;DHT22;72673;50.822;3.280;2024-01-15T05:15:54;3.10;92.10
82901;DHT22;72673;50.822;3.280;2024-01-15T05:18:20;3.10;92.30
82901;DHT22;72673;50.822;3.280;2024-01-15T05:20:46;3.20;92.20
82901;DHT22;72673;50.822;3.280;2024-01-15T05:23:11;3.10;92.20
82901;DHT22;72673;50.822;3.280;2024-01-15T05:25:37;3.10;92.40
82901;DHT22;72673;50.822;3.280;2024-01-15T05:28:03;3.10;92.60
82901;DHT22;72673;50.822;3.280;2024-01-15T05:30:28;3.10;92.50
82901;DHT22;72673;50.822;3.280;2024-01-15T05:32:54;3.00;92.70
82901;DHT22;72673;50.822;3.280;2024-01-15T05:35:20;3.00;92.90
82901;DHT22;72673;50.822;3.280;2024-01-15T05:37:46;2.90;93.10
82901;DHT22;72673;50.822;3.280;2024-01-15T05:40:12;2.90;93.20
82901;DHT22;72673;50.822;3.280;2024-01-15T05:42:39;2.90;93.20
82901;DHT22;72673;50.822;3.280;2024-01-15T05:45:05;2.90;93.30
82901;DHT22;72673;50.822;3.280;2024-01-15T05:47:31;2.90;93.40
82901;DHT22;72673;50.822;3.280;2024-01-15T05:49:58;2.90;93.50
82901;DHT22;72673;50.822;3.280;2024-01-15T05:52:23;2.90;93.40
82901;DHT22;72673;50.822;3.280;2024-01-15T05:54:49;2.90;93.30
82901;DHT22;72673;50.822;3.280;2024-01-15T05:57:15;2.90;93.30
82901;DHT22;72673;50.822;3.280;2024-01-15T05:59:41;2.90;93.40
82901;DHT22;72673;50.822;3.280;2024-01-15T06:02:06;2.90;93.20
82901;DHT22;72673;50.822;3.280;2024-01-15T06:04:32;3.00;92.90
82901;DHT22;72673;50.822;3.280;2024-01-15T06:06:58;3.00;92.80
82901;DHT22;72673;50.822;3.280;2024-01-15T06:09:23;3.00;92.80
82901;DHT22;72673;50.822;3.280;2024-01-15T06:11:49;3.00;92.70
82901;DHT22;72673;50.822;3.280;2024-01-15T06:14:15;3.00;92.50
82901;DHT22;72673;50.822;3.280;2024-01-15T06:16:40;2.90;92.20
82901;DHT22;72673;50.822;3.280;2024-01-15T06:19:06;3.00;92.00
82901;DHT22;72673;50.822;3.280;2024-01-15T06:21:31;3.00;91.50
82901;DHT22;72673;50.822;3.280;2024-01-15T06:23:57;3.00;91.40
82901;DHT22;72673;50.822;3.280;2024-01-15T06:26:23;3.10;91.20
82901;DHT22;72673;50.822;3.280;2024-01-15T06:28:48;3.10;90.80
82901;DHT22;72673;50.822;3.280;2024-01-15T06:31:14;3.10;90.60
82901;DHT22;72673;50.822;3.280;2024-01-15T06:33:40;3.10;90.50
82901;DHT22;72673;50.822;3.280;2024-01-15T06:36:06;3.10;90.40
82901;DHT22;72673;50.822;3.280;2024-01-15T06:38:32;3.20;90.20
82901;DHT22;72673;50.822;3.280;2024-01-15T06:40:57;3.20;89.80
82901;DHT22;72673;50.822;3.280;2024-01-15T06:43:23;3.10;90.10
82901;DHT22;72673;50.822;3.280;2024-01-15T06:45:49;3.20;90.00
82901;DHT22;72673;50.822;3.280;2024-01-15T06:48:15;3.20;89.20
82901;DHT22;72673;50.822;3.280;2024-01-15T06:50:42;3.20;89.10
82901;DHT22;72673;50.822;3.280;2024-01-15T06:53:08;3.10;88.70
82901;DHT22;72673;50.822;3.280;2024-01-15T06:55:33;3.10;88.90
82901;DHT22;72673;50.822;3.280;2024-01-15T06:57:59;3.00;89.30
82901;DHT22;72673;50.822;3.280;2024-01-15T07:00:25;2.80;89.80
82901;DHT22;72673;50.822;3.280;2024-01-15T07:02:51;2.70;90.00
82901;DHT22;72673;50.822;3.280;2024-01-15T07:05:17;2.70;90.20
82901;DHT22;72673;50.822;3.280;2024-01-15T07:07:42;2.60;90.40
82901;DHT22;72673;50.822;3.280;2024-01-15T07:10:08;2.50;90.50
82901;DHT22;72673;50.822;3.280;2024-01-15T07:12:34;2.60;90.40
82901;DHT22;72673;50.822;3.280;2024-01-15T07:15:00;2.40;90.50
82901;DHT22;72673;50.822;3.280;2024-01-15T07:17:25;2.40;90.50
82901;DHT22;72673;50.822;3.280;2024-01-15T07:19:51;2.40;90.50
82901;DHT22;72673;50.822;3.280;2024-01-15T07:22:17;2.40;90.50
82901;DHT22;72673;50.822;3.280;2024-01-15T07:24:43;2.30;90.70
82901;DHT22;72673;50.822;3.280;2024-01-15T07:27:09;2.30;90.70
82901;DHT22;72673;50.822;3.280;2024-01-15T07:29:34;2.30;90.70
82901;DHT22;72673;50.822;3.280;2024-01-15T07:32:03;2.20;90.60
82901;DHT22;72673;50.822;3.280;2024-01-15T07:34:29;2.20;90.90
82901;DHT22;72673;50.822;3.280;2024-01-15T07:36:54;2.10;90.90
82901;DHT22;72673;50.822;3.280;2024-01-15T07:39:20;2.00;91.00
82901;DHT22;72673;50.822;3.280;2024-01-15T07:41:48;2.00;91.00
82901;DHT22;72673;50.822;3.280;2024-01-15T07:44:13;2.00;90.90
82901;DHT22;72673;50.822;3.280;2024-01-15T07:46:39;2.00;90.80
82901;DHT22;72673;50.822;3.280;2024-01-15T07:49:05;1.90;90.60
82901;DHT22;72673;50.822;3.280;2024-01-15T07:51:31;2.00;90.80
82901;DHT22;72673;50.822;3.280;2024-01-15T07:53:56;2.00;90.60
82901;DHT22;72673;50.822;3.280;2024-01-15T07:56:22;1.90;90.60
82901;DHT22;72673;50.822;3.280;2024-01-15T07:58:47;1.90;90.60
82901;DHT22;72673;50.822;3.280;2024-01-15T08:01:13;1.90;91.00
82901;DHT22;72673;50.822;3.280;2024-01-15T08:03:39;1.90;90.70
82901;DHT22;72673;50.822;3.280;2024-01-15T08:06:05;1.90;90.70
82901;DHT22;72673;50.822;3.280;2024-01-15T08:08:31;1.90;90.80
82901;DHT22;72673;50.822;3.280;2024-01-15T08:10:56;1.90;90.60
82901;DHT22;72673;50.822;3.280;2024-01-15T08:13:22;1.90;90.70
82901;DHT22;72673;50.822;3.280;2024-01-15T08:15:48;1.90;90.70
82901;DHT22;72673;50.822;3.280;2024-01-15T08:18:14;1.90;90.70
82901;DHT22;72673;50.822;3.280;2024-01-15T08:20:39;1.90;90.80
82901;DHT22;72673;50.822;3.280;2024-01-15T08:23:05;2.00;90.80
82901;DHT22;72673;50.822;3.280;2024-01-15T08:25:31;2.00;90.90
82901;DHT22;72673;50.822;3.280;2024-01-15T08:27:57;2.10;91.50
82901;DHT22;72673;50.822;3.280;2024-01-15T08:30:25;2.40;90.70
82901;DHT22;72673;50.822;3.280;2024-01-15T08:32:53;2.60;90.00
82901;DHT22;72673;50.822;3.280;2024-01-15T08:35:19;2.90;89.20
82901;DHT22;72673;50.822;3.280;2024-01-15T08:37:51;3.00;88.00
82901;DHT22;72673;50.822;3.280;2024-01-15T08:40:17;3.00;88.30
82901;DHT22;72673;50.822;3.280;2024-01-15T08:42:43;3.20;86.90
82901;DHT22;72673;50.822;3.280;2024-01-15T08:45:09;3.10;86.90
82901;DHT22;72673;50.822;3.280;2024-01-15T08:47:35;3.40;86.10
82901;DHT22;72673;50.822;3.280;2024-01-15T08:50:01;3.90;83.70
82901;DHT22;72673;50.822;3.280;2024-01-15T08:52:27;4.30;81.70
82901;DHT22;72673;50.822;3.280;2024-01-15T08:54:53;4.40;80.80
82901;DHT22;72673;50.822;3.280;2024-01-15T08:57:18;4.70;80.10
82901;DHT22;72673;50.822;3.280;2024-01-15T08:59:44;4.80;78.80
82901;DHT22;72673;50.822;3.280;2024-01-15T09:02:10;4.90;78.70
82901;DHT22;72673;50.822;3.280;2024-01-15T09:04:36;5.00;77.50
82901;DHT22;72673;50.822;3.280;2024-01-15T09:07:01;5.30;76.40
82901;DHT22;72673;50.822;3.280;2024-01-15T09:09:27;5.10;76.30
82901;DHT22;72673;50.822;3.280;2024-01-15T09:11:53;5.30;75.80
82901;DHT22;72673;50.822;3.280;2024-01-15T09:14:18;5.50;73.80
82901;DHT22;72673;50.822;3.280;2024-01-15T09:16:46;5.40;73.70
82901;DHT22;72673;50.822;3.280;2024-01-15T09:19:12;5.20;74.40
82901;DHT22;72673;50.822;3.280;2024-01-15T09:21:38;5.60;73.60
82901;DHT22;72673;50.822;3.280;2024-01-15T09:24:04;5.60;73.00
82901;DHT22;72673;50.822;3.280;2024-01-15T09:26:30;5.90;71.60
82901;DHT22;72673;50.822;3.280;2024-01-15T09:28:55;6.10;70.30
82901;DHT22;72673;50.822;3.280;2024-01-15T09:31:21;6.30;69.80
82901;DHT22;72673;50.822;3.280;2024-01-15T09:33:47;6.90;67.90
82901;DHT22;72673;50.822;3.280;2024-01-15T09:36:13;6.90;67.00
82901;DHT22;72673;50.822;3.280;2024-01-15T09:38:40;7.10;66.60
82901;DHT22;72673;50.822;3.280;2024-01-15T09:41:07;7.60;65.10
82901;DHT22;72673;50.822;3.280;2024-01-15T09:43:33;8.10;61.50
82901;DHT22;72673;50.822;3.280;2024-01-15T09:45:59;8.10;60.80
82901;DHT22;72673;50.822;3.280;2024-01-15T09:48:24;8.00;61.80
82901;DHT22;72673;50.822;3.280;2024-01-15T09:50:50;8.20;61.00
82901;DHT22;72673;50.822;3.280;2024-01-15T09:53:16;8.10;60.10
82901;DHT22;72673;50.822;3.280;2024-01-15T09:55:42;7.80;60.00
82901;DHT22;72673;50.822;3.280;2024-01-15T09:58:08;7.60;61.50
82901;DHT22;72673;50.822;3.280;2024-01-15T10:00:34;8.10;60.40
82901;DHT22;72673;50.822;3.280;2024-01-15T10:03:05;8.70;58.00
82901;DHT22;72673;50.822;3.280;2024-01-15T10:05:32;8.60;58.00
82901;DHT22;72673;50.822;3.280;2024-01-15T10:08:00;8.50;59.40
82901;DHT22;72673;50.822;3.280;2024-01-15T10:10:26;9.40;56.80
82901;DHT22;72673;50.822;3.280;2024-01-15T10:12:52;9.30;55.80
82901;DHT22;72673;50.822;3.280;2024-01-15T10:15:22;9.10;56.10
82901;DHT22;72673;50.822;3.280;2024-01-15T10:17:48;9.90;55.40
82901;DHT22;72673;50.822;3.280;2024-01-15T10:20:14;10.50;53.00
82901;DHT22;72673;50.822;3.280;2024-01-15T10:22:43;10.30;52.90
82901;DHT22;72673;50.822;3.280;2024-01-15T10:25:13;9.40;54.10
82901;DHT22;72673;50.822;3.280;2024-01-15T10:27:40;9.10;55.80
82901;DHT22;72673;50.822;3.280;2024-01-15T10:30:07;9.40;55.80
82901;DHT22;72673;50.822;3.280;2024-01-15T10:32:33;9.50;55.30
82901;DHT22;72673;50.822;3.280;2024-01-15T10:34:58;9.20;56.00
82901;DHT22;72673;50.822;3.280;2024-01-15T10:37:24;9.10;55.80
82901;DHT22;72673;50.822;3.280;2024-01-15T10:39:50;9.20;56.00
82901;DHT22;72673;50.822;3.280;2024-01-15T10:42:17;9.40;56.10
82901;DHT22;72673;50.822;3.280;2024-01-15T10:44:44;8.90;55.70
82901;DHT22;72673;50.822;3.280;2024-01-15T10:47:10;8.10;58.60
82901;DHT22;72673;50.822;3.280;2024-01-15T10:49:36;7.00;61.20
82901;DHT22;72673;50.822;3.280;2024-01-15T10:52:02;6.40;64.00
82901;DHT22;72673;50.822;3.280;2024-01-15T10:54:29;6.60;64.70
82901;DHT22;72673;50.822;3.280;2024-01-15T10:56:56;7.40;62.30
82901;DHT22;72673;50.822;3.280;2024-01-15T10:59:21;8.10;60.00
82901;DHT22;72673;50.822;3.280;2024-01-15T11:01:51;9.60;55.10
82901;DHT22;72673;50.822;3.280;2024-01-15T11:04:21;10.30;50.90
82901;DHT22;72673;50.822;3.280;2024-01-15T11:06:52;10.30;50.80
82901;DHT22;72673;50.822;3.280;2024-01-15T11:09:18;9.80;50.60
82901;DHT22;72673;50.822;3.280;2024-01-15T11:11:45;9.60;50.60
82901;DHT22;72673;50.822;3.280;2024-01-15T11:14:34;8.50;53.60
82901;DHT22;72673;50.822;3.280;2024-01-15T11:16:59;7.60;55.70
82901;DHT22;72673;50.822;3.280;2024-01-15T11:19:25;7.10;58.40
82901;DHT22;72673;50.822;3.280;2024-01-15T11:21:51;6.90;59.40
82901;DHT22;72673;50.822;3.280;2024-01-15T11:24:40;6.90;59.70
82901;DHT22;72673;50.822;3.280;2024-01-15T11:27:07;6.40;61.70
82901;DHT22;72673;50.822;3.280;2024-01-15T11:29:35;6.10;63.70
82901;DHT22;72673;50.822;3.280;2024-01-15T11:32:01;5.70;66.40
82901;DHT22;72673;50.822;3.280;2024-01-15T11:37:15;7.50;60.30
82901;DHT22;72673;50.822;3.280;2024-01-15T11:39:42;7.60;59.80
82901;DHT22;72673;50.822;3.280;2024-01-15T11:42:10;6.60;63.10
82901;DHT22;72673;50.822;3.280;2024-01-15T11:44:37;6.00;66.50
82901;DHT22;72673;50.822;3.280;2024-01-15T11:47:07;5.60;68.40
82901;DHT22;72673;50.822;3.280;2024-01-15T11:52:35;5.60;69.20
82901;DHT22;72673;50.822;3.280;2024-01-15T11:55:22;7.40;63.50
82901;DHT22;72673;50.822;3.280;2024-01-15T11:57:54;8.80;59.10
82901;DHT22;72673;50.822;3.280;2024-01-15T12:00:21;10.30;53.70
82901;DHT22;72673;50.822;3.280;2024-01-15T12:02:48;9.20;56.30
82901;DHT22;72673;50.822;3.280;2024-01-15T12:05:16;7.80;59.90
82901;DHT22;72673;50.822;3.280;2024-01-15T12:07:49;6.70;63.30
82901;DHT22;72673;50.822;3.280;2024-01-15T12:10:16;6.30;65.10
82901;DHT22;72673;50.822;3.280;2024-01-15T12:13:00;5.90;66.50
82901;DHT22;72673;50.822;3.280;2024-01-15T12:15:29;5.60;68.60
82901;DHT22;72673;50.822;3.280;2024-01-15T12:17:56;5.30;68.50
82901;DHT22;72673;50.822;3.280;2024-01-15T12:20:26;5.20;69.00
82901;DHT22;72673;50.822;3.280;2024-01-15T12:22:52;5.20;69.90
82901;DHT22;72673;50.822;3.280;2024-01-15T12:25:19;5.30;69.60
82901;DHT22;72673;50.822;3.280;2024-01-15T12:27:45;5.20;69.80
82901;DHT22;72673;50.822;3.280;2024-01-15T12:30:12;5.10;70.00
82901;DHT22;72673;50.822;3.280;2024-01-15T12:32:39;4.70;71.30
82901;DHT22;72673;50.822;3.280;2024-01-15T12:35:05;4.60;72.30
82901;DHT22;72673;50.822;3.280;2024-01-15T12:37:31;4.60;73.00
82901;DHT22;72673;50.822;3.280;2024-01-15T12:39:58;4.60;74.60
82901;DHT22;72673;50.822;3.280;2024-01-15T12:42:25;4.60;73.50
82901;DHT22;72673;50.822;3.280;2024-01-15T12:44:50;5.60;70.00
82901;DHT22;72673;50.822;3.280;2024-01-15T12:47:16;6.90;64.50
82901;DHT22;72673;50.822;3.280;2024-01-15T12:49:47;7.60;62.70
82901;DHT22;72673;50.822;3.280;2024-01-15T12:52:15;9.40;57.40
82901;DHT22;72673;50.822;3.280;2024-01-15T12:54:40;9.20;55.50
82901;DHT22;72673;50.822;3.280;2024-01-15T12:57:06;8.00;59.90
82901;DHT22;72673;50.822;3.280;2024-01-15T12:59:32;8.00;61.10
82901;DHT22;72673;50.822;3.280;2024-01-15T13:01:57;8.30;59.60
82901;DHT22;72673;50.822;3.280;2024-01-15T13:04:24;7.40;61.50
82901;DHT22;72673;50.822;3.280;2024-01-15T13:06:50;7.20;63.20
82901;DHT22;72673;50.822;3.280;2024-01-15T13:09:17;6.80;64.60
82901;DHT22;72673;50.822;3.280;2024-01-15T13:11:46;6.70;64.80
82901;DHT22;72673;50.822;3.280;2024-01-15T13:14:12;6.10;67.00
82901;DHT22;72673;50.822;3.280;2024-01-15T13:16:41;5.90;68.80
82901;DHT22;72673;50.822;3.280;2024-01-15T13:19:10;5.80;69.30
82901;DHT22;72673;50.822;3.280;2024-01-15T13:21:42;5.60;70.10
82901;DHT22;72673;50.822;3.280;2024-01-15T13:24:07;5.50;71.00
82901;DHT22;72673;50.822;3.280;2024-01-15T13:26:34;5.30;71.50
82901;DHT22;72673;50.822;3.280;2024-01-15T13:29:01;5.40;71.70
82901;DHT22;72673;50.822;3.280;2024-01-15T13:31:29;5.50;71.50
82901;DHT22;72673;50.822;3.280;2024-01-15T13:33:55;5.50;71.60
82901;DHT22;72673;50.822;3.280;2024-01-15T13:36:27;5.50;71.90
82901;DHT22;72673;50.822;3.280;2024-01-15T13:38:56;5.70;71.80
82901;DHT22;72673;50.822;3.280;2024-01-15T13:41:21;5.80;71.60
82901;DHT22;72673;50.822;3.280;2024-01-15T13:43:51;5.90;71.30
82901;DHT22;72673;50.822;3.280;2024-01-15T13:46:20;5.80;71.30
82901;DHT22;72673;50.822;3.280;2024-01-15T13:48:47;5.70;70.90
82901;DHT22;72673;50.822;3.280;2024-01-15T13:51:12;5.40;71.90
82901;DHT22;72673;50.822;3.280;2024-01-15T13:53:38;5.40;72.10
82901;DHT22;72673;50.822;3.280;2024-01-15T13:56:05;5.40;71.60
82901;DHT22;72673;50.822;3.280;2024-01-15T13:58:32;5.50;71.50
82901;DHT22;72673;50.822;3.280;2024-01-15T14:00:59;5.40;70.40
82901;DHT22;72673;50.822;3.280;2024-01-15T14:03:25;5.30;72.40
82901;DHT22;72673;50.822;3.280;2024-01-15T14:05:52;5.20;71.20
82901;DHT22;72673;50.822;3.280;2024-01-15T14:08:18;5.10;71.30
82901;DHT22;72673;50.822;3.280;2024-01-15T14:10:44;4.90;72.20
82901;DHT22;72673;50.822;3.280;2024-01-15T14:13:10;4.90;72.50
82901;DHT22;72673;50.822;3.280;2024-01-15T14:15:36;4.90;73.00
82901;DHT22;72673;50.822;3.280;2024-01-15T14:18:02;4.90;73.00
82901;DHT22;72673;50.822;3.280;2024-01-15T14:20:28;4.80;73.10
82901;DHT22;72673;50.822;3.280;2024-01-15T14:22:54;4.80;74.10
82901;DHT22;72673;50.822;3.280;2024-01-15T14:25:20;4.80;74.10
82901;DHT22;72673;50.822;3.280;2024-01-15T14:27:47;4.60;74.50
82901;DHT22;72673;50.822;3.280;2024-01-15T14:30:13;4.70;75.10
82901;DHT22;72673;50.822;3.280;2024-01-15T14:32:40;4.60;74.70
82901;DHT22;72673;50.822;3.280;2024-01-15T14:35:06;4.60;74.70
82901;DHT22;72673;50.822;3.280;2024-01-15T14:37:33;4.50;75.20
82901;DHT22;72673;50.822;3.280;2024-01-15T14:39:59;4.60;75.20
82901;DHT22;72673;50.822;3.280;2024-01-15T14:42:25;4.60;75.30
82901;DHT22;72673;50.822;3.280;2024-01-15T14:44:51;4.70;75.30
82901;DHT22;72673;50.822;3.280;2024-01-15T14:47:17;4.80;75.40
82901;DHT22;72673;50.822;3.280;2024-01-15T14:49:42;4.80;73.90
82901;DHT22;72673;50.822;3.280;2024-01-15T14:52:08;5.00;74.00
82901;DHT22;72673;50.822;3.280;2024-01-15T14:54:33;4.90;74.10
82901;DHT22;72673;50.822;3.280;2024-01-15T14:57:00;4.80;74.70
82901;DHT22;72673;50.822;3.280;2024-01-15T14:59:26;4.70;74.80
82901;DHT22;72673;50.822;3.280;2024-01-15T15:01:54;4.70;76.10
82901;DHT22;72673;50.822;3.280;2024-01-15T15:04:19;4.50;75.60
82901;DHT22;72673;50.822;3.280;2024-01-15T15:06:45;4.40;76.20
82901;DHT22;72673;50.822;3.280;2024-01-15T15:09:11;4.20;76.70
82901;DHT22;72673;50.822;3.280;2024-01-15T15:11:37;4.20;77.20
82901;DHT22;72673;50.822;3.280;2024-01-15T15:14:03;4.10;77.20
82901;DHT22;72673;50.822;3.280;2024-01-15T15:16:31;4.10;77.50
82901;DHT22;72673;50.822;3.280;2024-01-15T15:18:57;4.10;78.00
82901;DHT22;72673;50.822;3.280;2024-01-15T15:21:23;3.90;78.50
82901;DHT22;72673;50.822;3.280;2024-01-15T15:23:48;4.00;77.90
82901;DHT22;72673;50.822;3.280;2024-01-15T15:26:14;4.00;77.10
82901;DHT22;72673;50.822;3.280;2024-01-15T15:28:40;4.00;77.00
82901;DHT22;72673;50.822;3.280;2024-01-15T15:31:06;4.00;77.60
82901;DHT22;72673;50.822;3.280;2024-01-15T15:33:36;4.00;76.50
82901;DHT22;72673;50.822;3.280;2024-01-15T15:36:02;4.20;75.80
82901;DHT22;72673;50.822;3.280;2024-01-15T15:38:31;4.20;74.00
82901;DHT22;72673;50.822;3.280;2024-01-15T15:40:56;4.20;74.10
82901;DHT22;72673;50.822;3.280;2024-01-15T15:43:22;4.20;73.80
82901;DHT22;72673;50.822;3.280;2024-01-15T15:45:48;4.20;73.90